KCNY/CNY METAR and TAF weather

Enter ICAO airport designator
Station Type Date Time Source
KCNY METAR 2022/06/30 00:53 UTC NOAA

KCNY 300053Z AUTO 35012KT 10SM FEW110 28/12 A3004 RMK AO2 PK WND 28033/0012 WSHFT 0010 LTG DSNT E RAE2354B14E26 SLP104 P0000 T02780122


Station Type Date Time Source
KCNY Decoded METAR 2022/06/30 00:53 UTC NOAA

MOAB CANYONLANDS FIELD, UT, United States (KCNY) 38-46N 109-45W 1390M
Jun 29, 2022 - 08:53 PM EDT / 2022.06.30 0053 UTC
Wind: from the N (350 degrees) at 14 MPH (12 KT):0
Visibility: 10 mile(s):0
Sky conditions: mostly clear
Weather: Lightning observed
Precipitation last hour: A trace
Temperature: 82.0 F (27.8 C)
Dew Point: 54.0 F (12.2 C)
Relative Humidity: 38%
Pressure (altimeter): 30.04 in. Hg (1017 hPa)
ob: KCNY 300053Z AUTO 35012KT 10SM FEW110 28/12 A3004 RMK AO2 PK WND 28033/0012 WSHFT 0010 LTG DSNT E RAE2354B14E26 SLP104 P0000 T02780122
cycle: 1

Station Type Date Time Source
KCNY TAF 2022/06/29 19:06 UTC NOAA

TAF
AMD KCNY 291903Z 2919/3018 20010G16KT P6SM FEW110 FEW250
FM292200 27013G22KT P6SM SCT110 BKN200
FM300100 30010KT P6SM FEW110 BKN200
FM300600 VRB04KT P6SM FEW120 SCT200

Example: see airport list